Weather at Félix-Houphouët-Boigny International Airport

Public forecast

Using degrees Celsius for public forecast. Weather courtesy of forecast.io.

Current aviation weather report (METAR) for Félix-Houphouët-Boigny International Airport

Report is more than 6 hours old.

2022/11/14 15:30 (retrieved 2 years ago)

DIAP 141530Z 20009KT 9999 FEW013 FEW022CB 30/26 Q1010 TEMPO TS

Aviation forecast (TAF) for Félix-Houphouët-Boigny International Airport

Forecast is more than 12 hours old.

2023/02/22 18:00 (retrieved 1 year ago)

TAF DIAP 221742Z 2218/2324 22006KT 8000 SCT012 TEMPO 2305/2309 4000 BR